createdAt,value
2017-10-10T00:01:35.348Z,17.33
2017-10-10T00:06:38.321Z,16.50
2017-10-10T00:11:42.487Z,17.73
2017-10-10T00:16:47.482Z,18.97
2017-10-10T00:21:53.494Z,25.20
2017-10-10T00:27:00.441Z,22.43
2017-10-10T00:32:04.680Z,21.10
2017-10-10T00:37:07.574Z,24.67
2017-10-10T00:42:11.761Z,23.97
2017-10-10T00:47:15.937Z,26.13
2017-10-10T00:52:19.276Z,31.07
2017-10-10T01:02:30.151Z,22.20
2017-10-10T01:07:34.420Z,21.57
2017-10-10T01:12:38.773Z,19.93
2017-10-10T01:17:42.161Z,20.63
2017-10-10T01:22:46.207Z,21.50
2017-10-10T01:27:49.810Z,22.40
2017-10-10T01:32:54.041Z,23.50
2017-10-10T01:37:57.349Z,20.33
2017-10-10T01:48:08.429Z,24.80
2017-10-10T01:53:14.505Z,20.47
2017-10-10T01:58:17.917Z,23.20
2017-10-10T02:03:24.880Z,28.40
2017-10-10T02:08:28.224Z,21.43
2017-10-10T02:13:32.516Z,23.23
2017-10-10T02:18:35.893Z,23.13
2017-10-10T02:23:39.365Z,17.60
2017-10-10T02:28:45.321Z,17.07
2017-10-10T02:33:48.728Z,21.70
2017-10-10T02:38:53.865Z,18.37
2017-10-10T02:44:00.660Z,18.70
2017-10-10T02:49:03.994Z,17.73
2017-10-10T02:54:07.414Z,13.43
2017-10-10T02:59:11.054Z,17.47
2017-10-10T03:04:14.018Z,14.23
2017-10-10T03:09:19.035Z,19.40
2017-10-10T03:14:22.302Z,18.27
2017-10-10T03:19:25.737Z,22.00
2017-10-10T03:29:38.864Z,23.27
2017-10-10T03:34:41.744Z,17.43
2017-10-10T03:39:44.408Z,16.17
2017-10-10T03:49:54.610Z,15.70
2017-10-10T03:54:57.994Z,17.30
2017-10-10T04:00:03.976Z,14.73
2017-10-10T04:05:08.220Z,19.03
2017-10-10T04:10:12.416Z,21.70
2017-10-10T04:15:16.516Z,15.80
2017-10-10T04:20:19.952Z,16.77
2017-10-10T04:25:23.273Z,19.43
2017-10-10T04:30:26.580Z,14.10
2017-10-10T04:40:38.286Z,14.50
2017-10-10T04:45:41.626Z,15.70
2017-10-10T04:50:45.877Z,16.93
2017-10-10T04:55:50.123Z,17.33
2017-10-10T05:00:54.632Z,17.10
2017-10-10T05:05:58.950Z,14.27
2017-10-10T05:11:03.332Z,22.90
2017-10-10T05:16:07.563Z,20.40
2017-10-10T05:21:13.608Z,22.43
2017-10-10T05:26:18.738Z,16.83
2017-10-10T05:31:22.775Z,15.93
2017-10-10T05:36:28.909Z,20.60
2017-10-10T05:41:35.396Z,19.97
2017-10-10T05:46:38.406Z,17.47
2017-10-10T05:51:44.492Z,13.67
2017-10-10T05:56:49.284Z,16.30
2017-10-10T06:01:53.491Z,17.13
2017-10-10T06:06:56.783Z,16.20
2017-10-10T06:12:00.148Z,15.07
2017-10-10T06:17:02.854Z,16.47
2017-10-10T06:22:07.236Z,14.57
2017-10-10T06:27:10.689Z,14.70
2017-10-10T06:32:14.241Z,19.43
2017-10-10T06:37:17.665Z,21.20
2017-10-10T06:42:21.156Z,17.03
2017-10-10T06:47:24.274Z,16.97
2017-10-10T06:52:27.223Z,16.67
2017-10-10T06:57:30.210Z,18.37
2017-10-10T07:02:33.690Z,17.60
2017-10-10T07:07:37.896Z,15.53
2017-10-10T07:12:42.146Z,18.57
2017-10-10T07:17:46.286Z,18.87
2017-10-10T07:22:49.041Z,14.67
2017-10-10T07:27:55.007Z,15.20
2017-10-10T07:32:58.448Z,16.07
2017-10-10T07:38:02.154Z,14.03
2017-10-10T07:43:05.644Z,16.93
2017-10-10T07:48:09.073Z,16.50
2017-10-10T07:53:12.009Z,14.17
2017-10-10T07:58:14.707Z,14.53
2017-10-10T08:03:18.113Z,12.63
2017-10-10T08:08:21.551Z,17.30
2017-10-10T08:13:27.523Z,15.50
2017-10-10T08:18:31.693Z,19.17
2017-10-10T08:23:35.031Z,14.37
2017-10-10T08:28:39.298Z,12.30
2017-10-10T08:33:42.671Z,16.37
2017-10-10T08:38:45.381Z,14.23
2017-10-10T08:43:48.834Z,15.70
2017-10-10T08:48:53.275Z,17.17
2017-10-10T08:53:56.624Z,16.20
2017-10-10T08:58:59.640Z,17.67
2017-10-10T09:04:04.695Z,12.77
2017-10-10T09:09:10.869Z,12.50
2017-10-10T09:14:16.060Z,13.60
2017-10-10T09:19:20.360Z,12.23
2017-10-10T09:24:23.707Z,13.83
2017-10-10T09:29:26.629Z,13.47
2017-10-10T09:34:30.103Z,14.10
2017-10-10T09:39:33.434Z,14.70
2017-10-10T09:44:36.268Z,13.00
2017-10-10T09:49:40.775Z,9.83
2017-10-10T09:54:45.252Z,8.00
2017-10-10T09:59:48.732Z,12.80
2017-10-10T10:04:52.212Z,10.63
2017-10-10T10:09:58.337Z,8.90
2017-10-10T10:15:01.347Z,9.30
2017-10-10T10:20:04.775Z,10.33
2017-10-10T10:25:07.679Z,8.60
2017-10-10T10:30:10.605Z,11.27
2017-10-10T10:35:14.872Z,8.63
2017-10-10T10:45:27.780Z,7.00
2017-10-10T10:50:31.279Z,17.57
2017-10-10T10:55:34.747Z,9.63
2017-10-10T11:00:37.772Z,11.87
2017-10-10T11:05:41.292Z,17.93
2017-10-10T11:10:46.509Z,9.47
2017-10-10T11:15:50.810Z,9.10
2017-10-10T11:20:55.846Z,7.30
2017-10-10T11:26:00.156Z,14.60
2017-10-10T11:31:06.166Z,8.03
2017-10-10T11:36:09.691Z,9.50
2017-10-10T11:46:20.018Z,8.27
2017-10-10T11:51:24.281Z,23.97
2017-10-10T11:56:27.705Z,9.23
2017-10-10T12:01:32.204Z,8.20
2017-10-10T12:06:35.691Z,9.47
2017-10-10T12:11:39.271Z,9.13
2017-10-10T12:16:42.687Z,9.87
2017-10-10T12:26:52.386Z,6.40
2017-10-10T12:31:55.772Z,13.60
2017-10-10T12:36:58.471Z,7.97
2017-10-10T12:42:01.888Z,14.30
2017-10-10T12:47:06.103Z,15.77
2017-10-10T12:52:09.082Z,9.20
2017-10-10T12:57:12.045Z,4.37
2017-10-10T13:02:14.874Z,4.60
2017-10-10T13:07:19.102Z,3.60
2017-10-10T13:12:23.261Z,4.27
2017-10-10T13:17:27.503Z,3.30
2017-10-10T13:22:30.894Z,4.10
2017-10-10T13:27:33.571Z,6.70
2017-10-10T13:32:36.884Z,3.60
2017-10-10T13:37:40.187Z,4.87
2017-10-10T13:42:43.838Z,3.83
2017-10-10T13:47:47.235Z,6.30
2017-10-10T13:52:50.191Z,4.30
2017-10-10T13:57:54.394Z,7.33
2017-10-10T14:02:57.772Z,9.80
2017-10-10T14:08:00.590Z,7.97
2017-10-10T14:13:03.312Z,7.73
2017-10-10T14:18:06.627Z,7.10
2017-10-10T14:23:12.576Z,9.60
2017-10-10T14:28:15.568Z,10.80
2017-10-10T14:33:19.055Z,6.40
2017-10-10T14:38:22.777Z,10.00
2017-10-10T14:43:27.010Z,7.80
2017-10-10T14:48:30.423Z,8.10
2017-10-10T14:53:34.610Z,6.10
2017-10-10T14:58:38.782Z,12.50
2017-10-10T15:03:42.820Z,8.00
2017-10-10T15:08:46.074Z,8.33
2017-10-10T15:13:49.058Z,8.67
2017-10-10T15:18:53.879Z,8.23
2017-10-10T15:23:57.339Z,13.60
2017-10-10T15:29:00.242Z,8.83
2017-10-10T15:34:03.559Z,10.83
2017-10-10T15:39:06.977Z,10.33
2017-10-10T15:44:10.652Z,9.13
2017-10-10T15:49:14.120Z,7.47
2017-10-10T15:54:17.193Z,18.93
2017-10-10T15:59:20.636Z,12.80
2017-10-10T16:04:26.740Z,17.43
2017-10-10T16:09:29.727Z,16.00
2017-10-10T16:14:33.120Z,6.83
2017-10-10T16:19:37.693Z,10.23
2017-10-10T16:24:43.694Z,5.40
2017-10-10T16:29:47.987Z,5.27
2017-10-10T16:34:54.808Z,4.67
2017-10-10T16:40:00.769Z,7.47
2017-10-10T16:45:04.094Z,10.27
2017-10-10T16:50:10.191Z,6.30
2017-10-10T16:55:12.891Z,15.23
2017-10-10T17:00:17.427Z,8.97
2017-10-10T17:05:21.896Z,6.40
2017-10-10T17:10:26.298Z,8.80
2017-10-10T17:15:30.549Z,5.37
2017-10-10T17:20:33.630Z,3.93
2017-10-10T17:25:37.213Z,5.50
2017-10-10T17:30:40.849Z,5.33
2017-10-10T17:40:51.231Z,4.50
2017-10-10T17:51:06.153Z,10.07
2017-10-10T17:56:10.425Z,5.90
2017-10-10T18:01:13.380Z,7.57
2017-10-10T18:06:16.384Z,5.70
2017-10-10T18:11:23.429Z,4.27
2017-10-10T18:16:26.817Z,5.87
2017-10-10T18:21:30.386Z,3.50
2017-10-10T18:26:34.697Z,4.17
2017-10-10T18:31:38.247Z,4.13
2017-10-10T18:36:41.047Z,3.50
2017-10-10T18:41:47.339Z,3.67
2017-10-10T18:46:53.372Z,4.23
2017-10-10T18:51:56.831Z,3.50
2017-10-10T18:57:00.319Z,6.40
2017-10-10T19:02:06.502Z,5.80
2017-10-10T19:07:10.208Z,5.00
2017-10-10T19:12:13.801Z,4.17
2017-10-10T19:17:17.272Z,4.27
2017-10-10T19:22:21.727Z,4.87
2017-10-10T19:27:26.247Z,8.00
2017-10-10T19:32:29.816Z,11.10
2017-10-10T19:37:33.281Z,14.20
2017-10-10T19:42:36.348Z,5.83
2017-10-10T19:47:40.729Z,8.00
2017-10-10T19:52:44.384Z,7.50
2017-10-10T19:57:47.284Z,7.53
2017-10-10T20:02:50.697Z,10.33
2017-10-10T20:07:54.886Z,15.70
2017-10-10T20:12:58.647Z,11.20
2017-10-10T20:18:01.940Z,21.97
2017-10-10T20:23:06.220Z,11.17
2017-10-10T20:28:09.095Z,13.30
2017-10-10T20:33:13.772Z,20.60
2017-10-10T20:38:16.881Z,14.53
2017-10-10T20:43:20.316Z,17.03
2017-10-10T20:48:24.863Z,11.70
2017-10-10T20:53:27.946Z,16.13
2017-10-10T20:58:31.974Z,14.27
2017-10-10T21:03:35.362Z,11.73
2017-10-10T21:08:38.812Z,13.30
2017-10-10T21:13:42.984Z,13.83
2017-10-10T21:18:46.513Z,12.63
2017-10-10T21:23:49.841Z,11.83
2017-10-10T21:28:54.093Z,10.40
2017-10-10T21:33:59.338Z,18.13
2017-10-10T21:39:02.361Z,9.87
2017-10-10T21:44:05.707Z,13.50
2017-10-10T21:49:08.558Z,13.43
2017-10-10T21:54:11.901Z,13.97
2017-10-10T21:59:16.202Z,12.23
2017-10-10T22:04:19.548Z,13.13
2017-10-10T22:09:22.778Z,12.57
2017-10-10T22:14:30.097Z,10.57
2017-10-10T22:19:34.409Z,9.87
2017-10-10T22:24:38.826Z,13.20
2017-10-10T22:29:41.997Z,16.80
2017-10-10T22:34:45.775Z,10.73
2017-10-10T22:39:48.853Z,12.10
2017-10-10T22:44:51.925Z,19.03
2017-10-10T22:49:54.992Z,12.17
2017-10-10T22:54:58.422Z,19.43
2017-10-10T23:00:01.886Z,16.43
2017-10-10T23:05:04.780Z,12.90
2017-10-10T23:10:08.207Z,13.63
2017-10-10T23:15:11.755Z,23.63
2017-10-10T23:20:18.001Z,14.60
2017-10-10T23:25:21.447Z,14.00
2017-10-10T23:30:24.489Z,16.20
2017-10-10T23:35:29.210Z,20.77
2017-10-10T23:40:33.013Z,19.70
2017-10-10T23:45:36.465Z,12.17
2017-10-10T23:50:40.757Z,13.17
